createdAt,value
2019-02-19T00:00:12.762Z,184.28
2019-02-19T00:01:21.644Z,194.52
2019-02-19T00:02:28.461Z,185.93
2019-02-19T00:03:41.911Z,200.87
2019-02-19T00:04:52.610Z,191.47
2019-02-19T00:05:59.524Z,188.20
2019-02-19T00:07:06.092Z,190.35
2019-02-19T00:08:13.103Z,214.70
2019-02-19T00:09:19.859Z,230.18
2019-02-19T00:10:26.739Z,241.00
2019-02-19T00:11:34.024Z,260.65
2019-02-19T00:12:40.942Z,400.10
2019-02-19T00:14:21.414Z,316.08
2019-02-19T00:15:29.352Z,284.27
2019-02-19T00:16:36.682Z,281.20
2019-02-19T00:17:43.086Z,289.10
2019-02-19T00:18:50.935Z,340.82
2019-02-19T00:19:58.551Z,330.70
2019-02-19T00:21:05.597Z,324.98
2019-02-19T00:22:14.005Z,346.90
2019-02-19T00:23:20.733Z,341.88
2019-02-19T00:24:28.057Z,344.85
2019-02-19T00:25:34.881Z,375.05
2019-02-19T00:26:42.209Z,325.80
2019-02-19T00:28:09.666Z,342.00
2019-02-19T00:29:15.702Z,324.40
2019-02-19T00:30:22.010Z,309.00
2019-02-19T00:31:28.826Z,354.75
2019-02-19T00:32:35.941Z,315.07
2019-02-19T00:33:42.001Z,318.20
2019-02-19T00:34:48.932Z,280.62
2019-02-19T00:35:55.985Z,243.60
2019-02-19T00:37:03.631Z,254.95
2019-02-19T00:38:10.025Z,240.62
2019-02-19T00:39:16.730Z,237.40
2019-02-19T00:40:23.630Z,246.65
2019-02-19T00:41:30.544Z,248.20
2019-02-19T00:42:36.793Z,215.00
2019-02-19T00:43:44.395Z,213.72
2019-02-19T00:44:51.242Z,196.50
2019-02-19T00:45:57.836Z,185.97
2019-02-19T00:47:03.904Z,191.85
2019-02-19T00:48:11.181Z,192.22
2019-02-19T00:49:17.677Z,210.17
2019-02-19T00:50:24.771Z,583.00
2019-02-19T00:51:31.809Z,606.37
2019-02-19T00:52:38.865Z,525.50
2019-02-19T00:53:45.888Z,509.00
2019-02-19T00:54:53.403Z,449.55
2019-02-19T00:56:00.358Z,449.23
2019-02-19T00:57:07.505Z,415.12
2019-02-19T00:58:14.260Z,408.02
2019-02-19T00:59:21.879Z,438.22
2019-02-19T01:00:29.102Z,387.82
2019-02-19T01:01:35.560Z,432.92
2019-02-19T01:02:42.537Z,433.00
2019-02-19T01:03:49.395Z,366.85
2019-02-19T01:04:56.592Z,325.82
2019-02-19T01:06:03.539Z,323.43
2019-02-19T01:07:29.962Z,362.02
2019-02-19T01:08:36.643Z,322.60
2019-02-19T01:09:43.145Z,306.02
2019-02-19T01:10:50.650Z,322.07
2019-02-19T01:11:57.346Z,333.98
2019-02-19T01:13:04.204Z,327.80
2019-02-19T01:14:11.324Z,354.15
2019-02-19T01:15:25.240Z,355.62
2019-02-19T01:16:26.382Z,343.30
2019-02-19T01:17:33.499Z,342.35
2019-02-19T01:18:40.366Z,318.70
2019-02-19T01:19:47.164Z,318.55
2019-02-19T01:20:53.902Z,308.50
2019-02-19T01:22:00.737Z,305.87
2019-02-19T01:23:07.754Z,314.25
2019-02-19T01:24:14.697Z,307.57
2019-02-19T01:25:21.151Z,296.20
2019-02-19T01:26:27.523Z,296.63
2019-02-19T01:27:34.425Z,290.48
2019-02-19T01:28:41.663Z,283.15
2019-02-19T01:29:49.079Z,262.42
2019-02-19T01:30:55.469Z,269.05
2019-02-19T01:32:02.259Z,260.65
2019-02-19T01:33:08.461Z,261.52
2019-02-19T01:34:15.756Z,262.12
2019-02-19T01:35:22.542Z,261.23
2019-02-19T01:36:30.691Z,266.33
2019-02-19T01:37:37.505Z,264.65
2019-02-19T01:38:44.004Z,250.57
2019-02-19T01:39:51.841Z,248.93
2019-02-19T01:40:58.833Z,238.75
2019-02-19T01:42:06.182Z,240.10
2019-02-19T01:43:13.845Z,236.90
2019-02-19T01:44:22.909Z,250.03
2019-02-19T01:45:34.128Z,241.08
2019-02-19T01:46:38.901Z,224.00
2019-02-19T01:47:46.796Z,238.43
2019-02-19T01:48:54.483Z,232.35
2019-02-19T01:50:01.726Z,215.45
2019-02-19T01:51:09.520Z,214.60
2019-02-19T01:52:16.152Z,225.20
2019-02-19T01:53:22.857Z,220.45
2019-02-19T01:54:29.801Z,217.53
2019-02-19T01:55:36.485Z,219.40
2019-02-19T01:56:43.136Z,207.60
2019-02-19T01:57:50.320Z,218.63
2019-02-19T01:58:57.332Z,212.35
2019-02-19T02:00:05.362Z,205.62
2019-02-19T02:01:15.743Z,192.25
2019-02-19T02:02:23.112Z,208.65
2019-02-19T02:03:30.170Z,202.57
2019-02-19T02:04:36.711Z,193.75
2019-02-19T02:05:43.649Z,194.75
2019-02-19T02:06:50.116Z,198.20
2019-02-19T02:07:56.664Z,184.03
2019-02-19T02:09:05.159Z,198.17
2019-02-19T02:10:11.764Z,182.70
2019-02-19T02:11:18.254Z,190.47
2019-02-19T02:12:25.111Z,187.10
2019-02-19T02:13:31.779Z,198.32
2019-02-19T02:14:38.786Z,195.22
2019-02-19T02:15:45.439Z,190.05
2019-02-19T02:16:53.074Z,187.57
2019-02-19T02:17:59.903Z,196.00
2019-02-19T02:19:06.736Z,206.93
2019-02-19T02:20:13.896Z,195.28
2019-02-19T02:21:21.191Z,196.90
2019-02-19T02:22:28.615Z,196.53
2019-02-19T02:23:35.511Z,196.68
2019-02-19T02:24:42.348Z,203.42
2019-02-19T02:25:49.353Z,198.57
2019-02-19T02:26:56.545Z,193.55
2019-02-19T02:28:03.456Z,203.25
2019-02-19T02:29:10.187Z,198.23
2019-02-19T02:30:17.108Z,196.50
2019-02-19T02:31:23.661Z,193.05
2019-02-19T02:32:30.845Z,194.02
2019-02-19T02:33:38.604Z,183.18
2019-02-19T02:34:45.264Z,189.93
2019-02-19T02:35:51.446Z,205.40
2019-02-19T02:36:58.425Z,209.67
2019-02-19T02:38:05.478Z,208.20
2019-02-19T02:39:13.417Z,207.90
2019-02-19T02:40:22.570Z,218.22
2019-02-19T02:41:29.911Z,203.55
2019-02-19T02:42:37.190Z,208.80
2019-02-19T02:43:44.860Z,206.75
2019-02-19T02:44:51.446Z,207.20
2019-02-19T02:45:57.923Z,208.32
2019-02-19T02:47:04.987Z,211.47
2019-02-19T02:48:12.276Z,221.30
2019-02-19T02:49:20.008Z,222.37
2019-02-19T02:50:27.823Z,210.08
2019-02-19T02:51:34.745Z,223.50
2019-02-19T02:52:41.445Z,215.60
2019-02-19T02:53:49.282Z,224.12
2019-02-19T02:54:57.056Z,201.85
2019-02-19T02:56:03.757Z,202.78
2019-02-19T02:57:10.335Z,188.68
2019-02-19T02:58:17.784Z,198.40
2019-02-19T02:59:24.313Z,187.77
2019-02-19T03:00:31.407Z,204.75
2019-02-19T03:01:37.894Z,189.35
2019-02-19T03:02:45.048Z,186.73
2019-02-19T03:03:52.024Z,198.55
2019-02-19T03:04:58.477Z,191.37
2019-02-19T03:06:11.473Z,195.95
2019-02-19T03:07:19.909Z,208.95
2019-02-19T03:08:27.226Z,200.72
2019-02-19T03:09:33.991Z,203.62
2019-02-19T03:10:40.567Z,207.60
2019-02-19T03:11:47.115Z,203.75
2019-02-19T03:12:54.369Z,199.80
2019-02-19T03:14:00.719Z,190.45
2019-02-19T03:15:09.625Z,207.72
2019-02-19T03:16:17.131Z,209.55
2019-02-19T03:17:24.271Z,197.80
2019-02-19T03:18:31.818Z,191.55
2019-02-19T03:19:58.968Z,200.93
2019-02-19T03:21:05.034Z,197.40
2019-02-19T03:22:11.332Z,194.60
2019-02-19T03:23:18.602Z,190.43
2019-02-19T03:24:26.081Z,193.62
2019-02-19T03:25:33.252Z,203.83
2019-02-19T03:26:41.165Z,203.88
2019-02-19T03:27:48.388Z,196.68
2019-02-19T03:28:55.047Z,193.93
2019-02-19T03:30:02.044Z,191.77
2019-02-19T03:31:08.415Z,185.90
2019-02-19T03:32:15.700Z,195.45
2019-02-19T03:33:22.779Z,198.17
2019-02-19T03:34:29.836Z,196.12
2019-02-19T03:35:37.275Z,193.55
2019-02-19T03:36:44.586Z,189.13
2019-02-19T03:37:51.224Z,190.75
2019-02-19T03:38:57.638Z,192.72
2019-02-19T03:40:04.279Z,179.65
2019-02-19T03:41:11.374Z,179.90
2019-02-19T03:42:17.790Z,202.00
2019-02-19T03:43:24.466Z,191.53
2019-02-19T03:44:31.866Z,190.03
2019-02-19T03:45:38.880Z,200.55
2019-02-19T03:46:45.734Z,181.87
2019-02-19T03:47:53.248Z,190.60
2019-02-19T03:48:59.565Z,180.03
2019-02-19T03:50:06.887Z,185.73
2019-02-19T03:51:13.294Z,193.30
2019-02-19T03:52:20.186Z,181.65
2019-02-19T03:53:27.088Z,193.25
2019-02-19T03:54:33.710Z,184.43
2019-02-19T03:55:40.984Z,186.18
2019-02-19T03:56:47.607Z,175.65
2019-02-19T03:57:54.322Z,184.40
2019-02-19T03:59:01.928Z,185.32
2019-02-19T04:00:10.743Z,185.05
2019-02-19T04:01:18.433Z,178.10
2019-02-19T04:02:25.464Z,182.10
2019-02-19T04:03:32.585Z,183.65
2019-02-19T04:04:39.504Z,192.35
2019-02-19T04:05:46.693Z,186.67
2019-02-19T04:06:53.930Z,186.65
2019-02-19T04:08:02.549Z,185.63
2019-02-19T04:09:09.840Z,195.57
2019-02-19T04:10:17.018Z,187.47
2019-02-19T04:11:24.998Z,186.52
2019-02-19T04:12:33.128Z,180.63
2019-02-19T04:13:40.164Z,181.52
2019-02-19T04:14:47.720Z,184.85
2019-02-19T04:15:55.845Z,191.05
2019-02-19T04:17:03.718Z,182.57
2019-02-19T04:18:10.676Z,183.12
2019-02-19T04:19:18.160Z,176.93
2019-02-19T04:20:24.744Z,179.70
2019-02-19T04:21:31.663Z,175.27
2019-02-19T04:22:38.652Z,172.60
2019-02-19T04:23:46.856Z,182.05
2019-02-19T04:24:53.351Z,190.53
2019-02-19T04:26:00.214Z,182.93
2019-02-19T04:27:06.830Z,175.95
2019-02-19T04:28:13.895Z,183.40
2019-02-19T04:29:20.783Z,175.18
2019-02-19T04:30:27.212Z,175.70
2019-02-19T04:31:34.068Z,172.02
2019-02-19T04:32:40.598Z,182.62
2019-02-19T04:33:47.001Z,189.77
2019-02-19T04:34:54.235Z,178.97
2019-02-19T04:36:00.607Z,170.85
2019-02-19T04:37:07.274Z,176.40
2019-02-19T04:38:14.019Z,183.22
2019-02-19T04:39:20.928Z,178.45
2019-02-19T04:40:27.608Z,185.65
2019-02-19T04:41:34.277Z,185.40
2019-02-19T04:42:41.674Z,206.10
2019-02-19T04:43:48.628Z,236.57
2019-02-19T04:44:56.918Z,239.12
2019-02-19T04:46:03.616Z,253.20
2019-02-19T04:47:11.620Z,214.60
2019-02-19T04:48:19.493Z,195.12
2019-02-19T04:49:26.464Z,177.82
2019-02-19T04:50:33.447Z,194.50
2019-02-19T04:51:39.847Z,187.80
2019-02-19T04:52:47.542Z,197.40
2019-02-19T04:53:54.047Z,232.57
2019-02-19T04:55:00.717Z,238.68
2019-02-19T04:56:08.722Z,235.80
2019-02-19T04:57:15.550Z,249.15
2019-02-19T04:58:22.811Z,235.90
2019-02-19T04:59:29.554Z,230.55
2019-02-19T05:00:36.651Z,241.40
2019-02-19T05:01:43.631Z,230.43
2019-02-19T05:02:51.634Z,183.05
2019-02-19T05:03:58.269Z,179.63
2019-02-19T05:05:05.415Z,174.95
2019-02-19T05:06:12.266Z,178.27
2019-02-19T05:07:19.925Z,167.25
2019-02-19T05:08:26.326Z,183.50
2019-02-19T05:09:32.526Z,179.25
2019-02-19T05:10:38.708Z,149.35
2019-02-19T05:11:45.857Z,148.78
2019-02-19T05:12:52.292Z,136.30
2019-02-19T05:13:59.101Z,138.90
2019-02-19T05:15:09.315Z,132.65
2019-02-19T05:16:16.873Z,129.50
2019-02-19T05:17:23.643Z,146.70
2019-02-19T05:18:30.159Z,134.05
2019-02-19T05:19:36.464Z,138.07
2019-02-19T05:20:43.030Z,131.27
2019-02-19T05:21:49.983Z,129.50
2019-02-19T05:22:56.994Z,130.12
2019-02-19T05:24:04.850Z,115.90
2019-02-19T05:25:11.479Z,121.33
2019-02-19T05:26:19.072Z,118.80
2019-02-19T05:27:25.716Z,124.07
2019-02-19T05:28:32.477Z,126.78
2019-02-19T05:29:40.839Z,119.25
2019-02-19T05:30:48.157Z,126.30
2019-02-19T05:31:55.082Z,122.00
2019-02-19T05:33:02.108Z,127.07
2019-02-19T05:34:09.254Z,118.62
2019-02-19T05:35:15.768Z,121.55
2019-02-19T05:36:22.944Z,124.47
2019-02-19T05:37:30.005Z,132.60
2019-02-19T05:38:37.040Z,121.90
2019-02-19T05:39:44.429Z,116.45
2019-02-19T05:40:51.708Z,117.97
2019-02-19T05:41:58.785Z,126.22
2019-02-19T05:43:06.759Z,125.25
2019-02-19T05:44:13.399Z,127.58
2019-02-19T05:45:20.798Z,121.40
2019-02-19T05:46:27.477Z,120.57
2019-02-19T05:47:33.988Z,119.05
2019-02-19T05:48:40.493Z,111.85
2019-02-19T05:49:46.778Z,113.92
2019-02-19T05:50:54.005Z,117.08
2019-02-19T05:52:00.815Z,114.12
2019-02-19T05:53:08.215Z,109.97
2019-02-19T05:54:14.948Z,116.15
2019-02-19T05:55:22.146Z,109.85
2019-02-19T05:56:28.651Z,114.30
2019-02-19T05:57:36.806Z,112.68
2019-02-19T05:58:43.897Z,114.85
2019-02-19T05:59:50.515Z,108.15
2019-02-19T06:00:57.483Z,111.83
2019-02-19T06:02:04.281Z,108.52
2019-02-19T06:03:11.518Z,109.55
2019-02-19T06:04:18.815Z,103.65
2019-02-19T06:05:25.726Z,98.87
2019-02-19T06:06:32.479Z,103.30
2019-02-19T06:07:38.961Z,108.22
2019-02-19T06:08:46.259Z,106.17
2019-02-19T06:09:53.281Z,110.48
2019-02-19T06:11:00.096Z,109.07
2019-02-19T06:12:07.065Z,108.55
2019-02-19T06:13:13.735Z,110.15
2019-02-19T06:14:20.294Z,109.83
2019-02-19T06:15:27.396Z,103.72
2019-02-19T06:16:34.299Z,107.60
2019-02-19T06:17:40.761Z,109.40
2019-02-19T06:18:48.287Z,112.00
2019-02-19T06:19:55.666Z,114.75
2019-02-19T06:21:02.268Z,120.30
2019-02-19T06:22:08.998Z,105.97
2019-02-19T06:23:16.329Z,108.37
2019-02-19T06:24:23.521Z,104.35
2019-02-19T06:25:29.713Z,104.53
2019-02-19T06:26:36.727Z,104.20
2019-02-19T06:27:44.426Z,104.58
2019-02-19T06:28:57.544Z,106.20
2019-02-19T06:30:14.632Z,102.47
2019-02-19T06:31:21.726Z,105.12
2019-02-19T06:32:30.376Z,112.08
2019-02-19T06:33:38.058Z,107.60
2019-02-19T06:34:44.026Z,108.85
2019-02-19T06:35:50.301Z,108.37
2019-02-19T06:36:57.269Z,112.37
2019-02-19T06:38:03.242Z,135.18
2019-02-19T06:39:09.683Z,143.78
2019-02-19T06:40:27.668Z,153.62
2019-02-19T06:41:34.685Z,157.75
2019-02-19T06:42:41.427Z,164.35
2019-02-19T06:43:49.718Z,145.97
2019-02-19T06:44:55.933Z,135.97
2019-02-19T06:46:04.309Z,138.10
2019-02-19T06:47:10.733Z,144.05
2019-02-19T06:48:17.998Z,156.12
2019-02-19T06:49:25.386Z,158.47
2019-02-19T06:50:34.460Z,172.35
2019-02-19T06:51:42.022Z,130.50
2019-02-19T06:52:49.108Z,146.45
2019-02-19T06:53:56.140Z,137.37
2019-02-19T06:55:04.762Z,117.55
2019-02-19T06:56:12.991Z,129.78
2019-02-19T06:57:19.749Z,133.22
2019-02-19T06:58:26.773Z,142.43
2019-02-19T06:59:35.422Z,166.25
2019-02-19T07:00:41.578Z,156.30
2019-02-19T07:02:04.634Z,150.12
2019-02-19T07:03:18.425Z,150.12
2019-02-19T07:04:26.415Z,161.32
2019-02-19T07:05:33.855Z,166.62
2019-02-19T07:06:40.595Z,190.80
2019-02-19T07:07:48.157Z,179.30
2019-02-19T07:08:54.887Z,174.30
2019-02-19T07:10:02.087Z,189.67
2019-02-19T07:11:08.646Z,165.88
2019-02-19T07:12:15.447Z,150.25
2019-02-19T07:13:22.295Z,132.43
2019-02-19T07:14:29.453Z,125.18
2019-02-19T07:15:37.147Z,124.12
2019-02-19T07:16:44.429Z,107.87
2019-02-19T07:17:50.959Z,106.90
2019-02-19T07:18:58.371Z,112.95
2019-02-19T07:20:07.691Z,116.22
2019-02-19T07:21:15.422Z,109.92
2019-02-19T07:22:22.642Z,110.90
2019-02-19T07:23:30.250Z,103.47
2019-02-19T07:24:37.057Z,109.78
2019-02-19T07:25:44.215Z,119.72
2019-02-19T07:26:51.351Z,115.50
2019-02-19T07:27:58.297Z,114.32
2019-02-19T07:29:06.515Z,97.35
2019-02-19T07:30:13.744Z,93.30
2019-02-19T07:31:21.384Z,100.65
2019-02-19T07:32:28.884Z,101.87
2019-02-19T07:33:35.757Z,95.67
2019-02-19T07:34:42.965Z,94.97
2019-02-19T07:35:50.861Z,101.00
2019-02-19T07:36:58.184Z,104.38
2019-02-19T07:38:04.900Z,96.82
2019-02-19T07:39:12.442Z,91.53
2019-02-19T07:40:19.053Z,97.92
2019-02-19T07:41:26.270Z,94.42
2019-02-19T07:42:34.599Z,93.10
2019-02-19T07:43:41.301Z,96.67
2019-02-19T07:44:48.436Z,97.12
2019-02-19T07:45:55.480Z,92.40
2019-02-19T07:47:02.506Z,98.40
2019-02-19T07:48:09.144Z,105.78
2019-02-19T07:49:16.153Z,107.30
2019-02-19T07:50:23.184Z,93.82
2019-02-19T07:51:30.633Z,101.97
2019-02-19T07:52:37.570Z,90.10
2019-02-19T07:53:44.555Z,90.75
2019-02-19T07:54:51.878Z,110.57
2019-02-19T07:56:00.990Z,111.28
2019-02-19T07:57:08.281Z,120.70
2019-02-19T07:58:15.461Z,110.17
2019-02-19T07:59:23.232Z,95.77
2019-02-19T08:00:32.905Z,85.28
2019-02-19T08:01:41.900Z,85.72
2019-02-19T08:02:49.584Z,87.60
2019-02-19T08:03:58.385Z,117.45
2019-02-19T08:05:06.526Z,105.43
2019-02-19T08:06:14.523Z,82.35
2019-02-19T08:07:21.294Z,98.70
2019-02-19T08:08:28.484Z,80.25
2019-02-19T08:09:35.446Z,71.00
2019-02-19T08:10:42.835Z,70.03
2019-02-19T08:11:49.620Z,94.77
2019-02-19T08:12:56.413Z,110.75
2019-02-19T08:14:03.626Z,94.52
2019-02-19T08:15:14.933Z,70.80
2019-02-19T08:16:21.974Z,77.03
2019-02-19T08:17:33.269Z,80.40
2019-02-19T08:18:36.895Z,87.97
2019-02-19T08:19:44.052Z,78.25
2019-02-19T08:20:51.340Z,81.45
2019-02-19T08:21:58.283Z,88.10
2019-02-19T08:23:06.676Z,96.10
2019-02-19T08:24:15.329Z,64.77
2019-02-19T08:25:22.901Z,62.27
2019-02-19T08:26:30.226Z,61.55
2019-02-19T08:27:37.023Z,69.95
2019-02-19T08:28:44.003Z,68.87
2019-02-19T08:29:51.258Z,78.28
2019-02-19T08:30:57.392Z,71.28
2019-02-19T08:32:04.423Z,83.95
2019-02-19T08:33:12.165Z,77.72
2019-02-19T08:34:19.120Z,77.97
2019-02-19T08:35:25.667Z,81.45
2019-02-19T08:36:34.765Z,69.90
2019-02-19T08:37:41.948Z,65.25
2019-02-19T08:38:48.958Z,61.85
2019-02-19T08:39:55.963Z,59.03
2019-02-19T08:41:03.785Z,56.13
2019-02-19T08:42:10.143Z,60.10
2019-02-19T08:43:17.376Z,57.98
2019-02-19T08:44:24.403Z,61.28
2019-02-19T08:45:31.518Z,56.00
2019-02-19T08:46:38.160Z,57.05
2019-02-19T08:47:45.438Z,58.98
2019-02-19T08:48:52.726Z,53.40
2019-02-19T08:50:00.698Z,54.77
2019-02-19T08:51:08.098Z,54.55
2019-02-19T08:52:15.872Z,52.73
2019-02-19T08:53:22.570Z,53.50
2019-02-19T08:54:29.037Z,52.00
2019-02-19T08:55:35.457Z,64.77
2019-02-19T08:56:42.859Z,62.93
2019-02-19T08:57:48.980Z,64.30
2019-02-19T08:58:55.598Z,59.00
2019-02-19T09:00:01.619Z,62.33
2019-02-19T09:01:09.823Z,57.93
2019-02-19T09:02:17.100Z,54.90
2019-02-19T09:03:23.324Z,57.67
2019-02-19T09:04:33.706Z,57.00
2019-02-19T09:05:41.624Z,62.20
2019-02-19T09:06:49.797Z,61.88
2019-02-19T09:07:57.314Z,57.00
2019-02-19T09:09:05.546Z,59.15
2019-02-19T09:10:14.643Z,53.35
2019-02-19T09:11:20.443Z,57.35
2019-02-19T09:12:28.896Z,57.33
2019-02-19T09:13:35.124Z,58.10
2019-02-19T09:14:41.179Z,52.33
2019-02-19T09:15:48.177Z,53.68
2019-02-19T09:16:53.963Z,54.53
2019-02-19T09:18:00.273Z,53.98
2019-02-19T09:19:07.077Z,55.92
2019-02-19T09:20:15.199Z,50.38
2019-02-19T09:21:21.904Z,53.95
2019-02-19T09:22:28.765Z,49.77
2019-02-19T09:23:35.564Z,50.35
2019-02-19T09:24:42.727Z,49.05
2019-02-19T09:25:48.538Z,53.58
2019-02-19T09:26:55.627Z,51.67
2019-02-19T09:28:02.580Z,48.60
2019-02-19T09:29:09.125Z,49.30
2019-02-19T09:30:15.819Z,53.45
2019-02-19T09:31:22.680Z,54.30
2019-02-19T09:32:28.657Z,50.85
2019-02-19T09:33:36.004Z,55.00
2019-02-19T09:34:42.084Z,52.63
2019-02-19T09:35:50.538Z,48.55
2019-02-19T09:36:56.754Z,49.40
2019-02-19T09:38:02.900Z,54.80
2019-02-19T09:39:09.857Z,49.88
2019-02-19T09:40:16.346Z,48.17
2019-02-19T09:41:22.918Z,48.83
2019-02-19T09:42:29.405Z,44.43
2019-02-19T09:43:36.305Z,47.98
2019-02-19T09:44:42.145Z,44.50
2019-02-19T09:45:48.977Z,44.20
2019-02-19T09:46:55.864Z,45.43
2019-02-19T09:48:01.775Z,45.07
2019-02-19T09:49:08.345Z,49.73
2019-02-19T09:50:15.486Z,48.27
2019-02-19T09:51:23.157Z,47.90
2019-02-19T09:52:29.758Z,45.97
2019-02-19T09:53:35.518Z,47.20
2019-02-19T09:54:43.438Z,45.57
2019-02-19T09:55:49.818Z,46.83
2019-02-19T09:56:55.978Z,52.70
2019-02-19T09:58:04.178Z,49.07
2019-02-19T09:59:10.425Z,46.80
2019-02-19T10:00:16.497Z,43.37
2019-02-19T10:01:23.223Z,39.13
2019-02-19T10:02:29.538Z,44.63
2019-02-19T10:03:36.606Z,41.70
2019-02-19T10:04:43.292Z,43.50
2019-02-19T10:05:49.319Z,41.83
2019-02-19T10:06:56.120Z,39.70
2019-02-19T10:08:02.826Z,40.40
2019-02-19T10:09:09.721Z,40.67
2019-02-19T10:10:21.077Z,40.93
2019-02-19T10:11:27.686Z,52.77
2019-02-19T10:12:33.833Z,39.27
2019-02-19T10:13:41.985Z,40.57
2019-02-19T10:14:47.918Z,39.37
2019-02-19T10:15:55.305Z,41.13
2019-02-19T10:17:03.299Z,36.97
2019-02-19T10:18:10.506Z,43.77
2019-02-19T10:19:16.890Z,38.10
2019-02-19T10:20:23.257Z,42.67
2019-02-19T10:21:29.675Z,37.53
2019-02-19T10:22:35.458Z,37.27
2019-02-19T10:23:41.799Z,37.53
2019-02-19T10:24:48.285Z,39.37
2019-02-19T10:25:55.045Z,44.13
2019-02-19T10:27:00.817Z,40.73
2019-02-19T10:28:07.218Z,38.93
2019-02-19T10:29:15.098Z,38.97
2019-02-19T10:30:23.144Z,41.77
2019-02-19T10:31:29.185Z,37.87
2019-02-19T10:32:35.065Z,39.23
2019-02-19T10:33:42.725Z,38.53
2019-02-19T10:34:49.218Z,40.17
2019-02-19T10:35:55.215Z,36.37
2019-02-19T10:37:02.099Z,40.03
2019-02-19T10:38:08.308Z,36.70
2019-02-19T10:39:14.698Z,38.20
2019-02-19T10:40:22.425Z,39.33
2019-02-19T10:41:28.558Z,33.37
2019-02-19T10:42:34.538Z,39.80
2019-02-19T10:43:41.224Z,41.07
2019-02-19T10:44:47.145Z,33.77
2019-02-19T10:45:54.545Z,40.13
2019-02-19T10:47:02.985Z,36.43
2019-02-19T10:48:09.165Z,37.47
2019-02-19T10:49:15.198Z,35.30
2019-02-19T10:50:22.018Z,40.43
2019-02-19T10:51:29.485Z,35.27
2019-02-19T10:52:36.185Z,34.30
2019-02-19T10:53:42.844Z,35.97
2019-02-19T10:54:51.145Z,36.63
2019-02-19T10:55:56.865Z,35.70
2019-02-19T10:57:02.867Z,36.53
2019-02-19T10:58:08.979Z,36.70
2019-02-19T10:59:15.506Z,39.17
2019-02-19T11:00:43.718Z,35.27
2019-02-19T11:01:50.267Z,34.30
2019-02-19T11:02:56.198Z,42.10
2019-02-19T11:04:03.128Z,44.03
2019-02-19T11:05:11.740Z,35.60
2019-02-19T11:06:19.626Z,37.40
2019-02-19T11:07:26.658Z,39.33
2019-02-19T11:08:33.738Z,35.87
2019-02-19T11:09:40.359Z,39.03
2019-02-19T11:10:47.019Z,36.53
2019-02-19T11:11:55.619Z,34.33
2019-02-19T11:13:03.401Z,43.83
2019-02-19T11:14:10.338Z,44.27
2019-02-19T11:15:17.462Z,44.93
2019-02-19T11:16:23.645Z,40.67
2019-02-19T11:17:30.079Z,33.57
2019-02-19T11:18:57.626Z,36.63
2019-02-19T11:20:07.283Z,36.50
2019-02-19T11:21:19.355Z,44.00
2019-02-19T11:22:20.869Z,37.77
2019-02-19T11:23:27.818Z,32.50
2019-02-19T11:24:34.826Z,39.10
2019-02-19T11:25:41.626Z,36.37
2019-02-19T11:26:48.746Z,39.03
2019-02-19T11:27:54.779Z,33.77
2019-02-19T11:29:01.938Z,35.53
2019-02-19T11:30:17.554Z,41.17
2019-02-19T11:31:25.878Z,41.57
2019-02-19T11:32:34.022Z,35.93
2019-02-19T11:33:39.978Z,34.43
2019-02-19T11:34:47.619Z,35.90
2019-02-19T11:35:54.821Z,36.43
2019-02-19T11:37:01.499Z,34.00
2019-02-19T11:38:08.118Z,38.17
2019-02-19T11:39:13.985Z,39.87
2019-02-19T11:40:22.605Z,38.00
2019-02-19T11:41:29.427Z,34.73
2019-02-19T11:42:35.319Z,36.03
2019-02-19T11:43:42.359Z,35.57
2019-02-19T11:44:49.879Z,34.57
2019-02-19T11:45:56.048Z,34.67
2019-02-19T11:47:02.846Z,35.13
2019-02-19T11:48:09.247Z,37.57
2019-02-19T11:49:15.225Z,35.73
2019-02-19T11:50:21.378Z,38.13
2019-02-19T11:51:27.187Z,43.43
2019-02-19T11:52:32.938Z,41.03
2019-02-19T11:53:39.534Z,38.37
2019-02-19T11:54:45.459Z,36.27
2019-02-19T11:55:51.928Z,37.83
2019-02-19T11:56:59.180Z,37.00
2019-02-19T11:58:05.162Z,39.33
2019-02-19T11:59:11.586Z,41.30
2019-02-19T12:00:20.159Z,38.83
2019-02-19T12:01:27.748Z,35.80
2019-02-19T12:02:34.579Z,38.07
2019-02-19T12:03:41.118Z,36.13
2019-02-19T12:04:47.986Z,42.03
2019-02-19T12:05:54.985Z,36.37
2019-02-19T12:07:01.067Z,40.20
2019-02-19T12:08:07.926Z,36.80
2019-02-19T12:09:14.779Z,42.63
2019-02-19T12:10:21.262Z,43.73
2019-02-19T12:11:27.946Z,44.77
2019-02-19T12:12:37.087Z,42.90
2019-02-19T12:13:42.980Z,41.00
2019-02-19T12:14:49.427Z,40.60
2019-02-19T12:15:56.430Z,43.47
2019-02-19T12:17:02.702Z,42.43
2019-02-19T12:18:09.750Z,43.03
2019-02-19T12:19:16.268Z,44.97
2019-02-19T12:20:22.303Z,40.00
2019-02-19T12:21:29.610Z,57.70
2019-02-19T12:22:36.211Z,46.17
2019-02-19T12:23:44.377Z,55.90
2019-02-19T12:24:51.039Z,42.10
2019-02-19T12:25:57.411Z,42.77
2019-02-19T12:27:04.470Z,43.20
2019-02-19T12:28:11.997Z,43.83
2019-02-19T12:29:17.838Z,45.43
2019-02-19T12:30:24.614Z,41.80
2019-02-19T12:31:31.039Z,46.07
2019-02-19T12:32:37.310Z,50.07
2019-02-19T12:33:44.058Z,49.03
2019-02-19T12:34:52.578Z,42.43
2019-02-19T12:35:58.999Z,42.63
2019-02-19T12:37:05.716Z,48.73
2019-02-19T12:38:15.600Z,40.93
2019-02-19T12:39:23.101Z,41.87
2019-02-19T12:40:30.095Z,45.60
2019-02-19T12:41:38.002Z,41.33
2019-02-19T12:42:45.534Z,44.57
2019-02-19T12:43:52.369Z,43.73
2019-02-19T12:44:59.737Z,45.97
2019-02-19T12:46:05.987Z,49.13
2019-02-19T12:47:12.364Z,41.80
2019-02-19T12:48:19.357Z,42.00
2019-02-19T12:49:25.671Z,45.93
2019-02-19T12:50:33.144Z,44.40
2019-02-19T12:51:40.416Z,47.07
2019-02-19T12:52:46.971Z,56.83
2019-02-19T12:53:53.346Z,47.33
2019-02-19T12:55:00.059Z,51.03
2019-02-19T12:56:09.510Z,43.63
2019-02-19T12:57:16.050Z,46.90
2019-02-19T12:58:22.532Z,47.20
2019-02-19T12:59:30.791Z,45.70
2019-02-19T13:00:38.191Z,47.23
2019-02-19T13:01:43.950Z,46.60
2019-02-19T13:02:50.431Z,44.97
2019-02-19T13:03:57.633Z,50.23
2019-02-19T13:05:03.546Z,43.73
2019-02-19T13:06:10.387Z,49.20
2019-02-19T13:07:17.424Z,46.53
2019-02-19T13:08:23.443Z,42.63
2019-02-19T13:09:30.544Z,44.47
2019-02-19T13:10:37.237Z,48.00
2019-02-19T13:11:43.402Z,45.20
2019-02-19T13:12:49.837Z,47.20
2019-02-19T13:13:56.966Z,42.80
2019-02-19T13:15:03.825Z,45.00
2019-02-19T13:16:10.304Z,40.70
2019-02-19T13:17:16.821Z,48.70
2019-02-19T13:18:22.886Z,41.93
2019-02-19T13:19:32.113Z,45.37
2019-02-19T13:20:39.146Z,47.23
2019-02-19T13:21:45.861Z,51.23
2019-02-19T13:22:52.168Z,47.37
2019-02-19T13:23:59.551Z,48.20
2019-02-19T13:25:09.750Z,42.93
2019-02-19T13:26:16.389Z,43.20
2019-02-19T13:27:22.550Z,45.17
2019-02-19T13:28:31.549Z,44.87
2019-02-19T13:29:39.650Z,44.60
2019-02-19T13:30:45.416Z,64.47
2019-02-19T13:31:52.206Z,47.07
2019-02-19T13:32:59.633Z,45.67
2019-02-19T13:34:07.527Z,46.53
2019-02-19T13:35:15.348Z,59.20
2019-02-19T13:36:22.533Z,61.07
2019-02-19T13:37:28.928Z,55.00
2019-02-19T13:38:36.094Z,47.47
2019-02-19T13:39:42.414Z,48.77
2019-02-19T13:40:48.653Z,75.33
2019-02-19T13:41:56.053Z,63.70
2019-02-19T13:43:02.089Z,77.70
2019-02-19T13:44:08.967Z,64.27
2019-02-19T13:45:17.633Z,69.00
2019-02-19T13:46:23.886Z,66.07
2019-02-19T13:47:29.847Z,65.17
2019-02-19T13:48:36.266Z,48.17
2019-02-19T13:49:43.666Z,51.90
2019-02-19T13:50:50.674Z,53.37
2019-02-19T13:51:58.435Z,55.43
2019-02-19T13:53:15.754Z,45.77
2019-02-19T13:54:24.075Z,48.83
2019-02-19T13:55:31.630Z,64.80
2019-02-19T13:56:38.127Z,97.37
2019-02-19T13:57:44.367Z,77.10
2019-02-19T13:58:53.306Z,123.93
2019-02-19T14:00:00.244Z,125.20
2019-02-19T14:01:06.847Z,75.63
2019-02-19T14:02:14.891Z,90.77
2019-02-19T14:03:22.926Z,67.43
2019-02-19T14:04:28.635Z,64.63
2019-02-19T14:05:36.030Z,77.07
2019-02-19T14:06:42.542Z,56.73
2019-02-19T14:07:49.837Z,58.53
2019-02-19T14:08:57.294Z,44.33
2019-02-19T14:10:04.647Z,47.97
2019-02-19T14:11:11.613Z,46.47
2019-02-19T14:12:19.493Z,54.83